AVA3704 SAEZ-SUMU
Flight info
| Callsign | AVA3704 |
|---|---|
| Flight time | 0h 31m |
| Altitude | 23000 |
| Route | PTA6A DORVO A305 TOKAM |
| Aircraft | A319/M-SDE3FGHIRWY/LB1 |
Departure
| Time | 2026-05-08 13:34 |
|---|---|
| Airport | Ezeiza International Airport - Ministro Pistarini (SAEZ) |
Arrival
| Time | 2026-05-08 14:06 |
|---|---|
| Airport | Carrasco General Cesáreo L. Berisso International Airport (SUMU) |
| Time | Latitude | Longitude | Altitude | Speed | Heading |
|---|---|---|---|---|---|
| 2026-05-08 13:33 | -34.82526 | -58.51872 | 63 ft | 10 kts | 282° |
| 2026-05-08 13:33 | -34.82477 | -58.52151 | 64 ft | 64 kts | 282° |
| 2026-05-08 13:33 | -34.82340 | -58.52918 | 69 ft | 120 kts | 282° |
| 2026-05-08 13:34 | -34.82143 | -58.54026 | 480 ft | 132 kts | 281° |
| 2026-05-08 13:34 | -34.81919 | -58.55088 | 1199 ft | 129 kts | 280° |
| 2026-05-08 13:34 | -34.81688 | -58.56128 | 1967 ft | 125 kts | 277° |
| 2026-05-08 13:34 | -34.81590 | -58.57139 | 2637 ft | 117 kts | 252° |
| 2026-05-08 13:35 | -34.82008 | -58.57962 | 3185 ft | 121 kts | 219° |
| 2026-05-08 13:35 | -34.82842 | -58.58394 | 3631 ft | 141 kts | 199° |
| 2026-05-08 13:35 | -34.83878 | -58.58517 | 4150 ft | 161 kts | 182° |
| 2026-05-08 13:35 | -34.84975 | -58.57954 | 4707 ft | 186 kts | 148° |
| 2026-05-08 13:36 | -34.85770 | -58.56607 | 5282 ft | 211 kts | 117° |
| 2026-05-08 13:36 | -34.86008 | -58.54731 | 5786 ft | 241 kts | 91° |
| 2026-05-08 13:36 | -34.85715 | -58.52633 | 6399 ft | 262 kts | 77° |
| 2026-05-08 13:36 | -34.85142 | -58.50463 | 7095 ft | 278 kts | 71° |
| 2026-05-08 13:37 | -34.84431 | -58.48212 | 7858 ft | 291 kts | 71° |
| 2026-05-08 13:37 | -34.83819 | -58.45877 | 8950 ft | 289 kts | 77° |
| 2026-05-08 13:37 | -34.83332 | -58.43519 | 10030 ft | 287 kts | 78° |
| 2026-05-08 13:37 | -34.82905 | -58.41082 | 10614 ft | 305 kts | 81° |
| 2026-05-08 13:38 | -34.82564 | -58.38498 | 11330 ft | 313 kts | 84° |
| 2026-05-08 13:38 | -34.82261 | -58.35864 | 12192 ft | 317 kts | 84° |
| 2026-05-08 13:38 | -34.81966 | -58.33213 | 13115 ft | 319 kts | 84° |
| 2026-05-08 13:38 | -34.81661 | -58.30530 | 13896 ft | 324 kts | 84° |
| 2026-05-08 13:39 | -34.81342 | -58.27808 | 14646 ft | 328 kts | 83° |
| 2026-05-08 13:39 | -34.81010 | -58.25062 | 15416 ft | 331 kts | 82° |
| 2026-05-08 13:39 | -34.80663 | -58.22273 | 16090 ft | 338 kts | 82° |
| 2026-05-08 13:39 | -34.80304 | -58.19435 | 16808 ft | 343 kts | 82° |
| 2026-05-08 13:40 | -34.79940 | -58.16563 | 17534 ft | 347 kts | 82° |
| 2026-05-08 13:40 | -34.79571 | -58.13637 | 18144 ft | 354 kts | 81° |
| 2026-05-08 13:40 | -34.79197 | -58.10665 | 18737 ft | 358 kts | 81° |
| 2026-05-08 13:40 | -34.78818 | -58.07667 | 19378 ft | 362 kts | 81° |
| 2026-05-08 13:41 | -34.78431 | -58.04628 | 19940 ft | 367 kts | 81° |
| 2026-05-08 13:41 | -34.78037 | -58.01549 | 20543 ft | 371 kts | 81° |
| 2026-05-08 13:41 | -34.77638 | -57.98441 | 21128 ft | 375 kts | 81° |
| 2026-05-08 13:41 | -34.77236 | -57.95298 | 21699 ft | 379 kts | 81° |
| 2026-05-08 13:42 | -34.76832 | -57.92122 | 22242 ft | 383 kts | 80° |
| 2026-05-08 13:42 | -34.76421 | -57.88896 | 22620 ft | 390 kts | 80° |
| 2026-05-08 13:42 | -34.76009 | -57.85638 | 22705 ft | 391 kts | 80° |
| 2026-05-08 13:42 | -34.75598 | -57.82381 | 22711 ft | 390 kts | 80° |
| 2026-05-08 13:43 | -34.75184 | -57.79125 | 22713 ft | 391 kts | 80° |
| 2026-05-08 13:43 | -34.74766 | -57.75871 | 22719 ft | 390 kts | 80° |
| 2026-05-08 13:43 | -34.74346 | -57.72618 | 22714 ft | 389 kts | 80° |
| 2026-05-08 13:43 | -34.73923 | -57.69373 | 22716 ft | 389 kts | 80° |
| 2026-05-08 13:44 | -34.73495 | -57.66132 | 22719 ft | 389 kts | 80° |
| 2026-05-08 13:44 | -34.73065 | -57.62883 | 22714 ft | 391 kts | 79° |
| 2026-05-08 13:44 | -34.72636 | -57.59612 | 22722 ft | 393 kts | 79° |
| 2026-05-08 13:44 | -34.72210 | -57.56344 | 22721 ft | 392 kts | 79° |
| 2026-05-08 13:45 | -34.71812 | -57.53064 | 22718 ft | 394 kts | 84° |
| 2026-05-08 13:45 | -34.71772 | -57.49745 | 22714 ft | 395 kts | 95° |
| 2026-05-08 13:45 | -34.72055 | -57.46444 | 22714 ft | 393 kts | 96° |
| 2026-05-08 13:45 | -34.72346 | -57.43139 | 22715 ft | 395 kts | 96° |
| 2026-05-08 13:46 | -34.72630 | -57.39825 | 22716 ft | 395 kts | 96° |
| 2026-05-08 13:46 | -34.72904 | -57.36525 | 22700 ft | 393 kts | 95° |
| 2026-05-08 13:46 | -34.73174 | -57.33226 | 22696 ft | 393 kts | 95° |
| 2026-05-08 13:46 | -34.73445 | -57.29919 | 22718 ft | 394 kts | 95° |
| 2026-05-08 13:47 | -34.73717 | -57.26617 | 22710 ft | 394 kts | 95° |
| 2026-05-08 13:47 | -34.73990 | -57.23299 | 22718 ft | 396 kts | 95° |
| 2026-05-08 13:47 | -34.74263 | -57.19979 | 22713 ft | 395 kts | 95° |
| 2026-05-08 13:47 | -34.74533 | -57.16672 | 22714 ft | 394 kts | 95° |
| 2026-05-08 13:48 | -34.74803 | -57.13351 | 22720 ft | 396 kts | 95° |
| 2026-05-08 13:48 | -34.75073 | -57.10032 | 22703 ft | 394 kts | 95° |
| 2026-05-08 13:48 | -34.75343 | -57.06734 | 22714 ft | 392 kts | 95° |
| 2026-05-08 13:48 | -34.75613 | -57.03428 | 22711 ft | 395 kts | 95° |
| 2026-05-08 13:49 | -34.75880 | -57.00117 | 22708 ft | 394 kts | 95° |
| 2026-05-08 13:49 | -34.76144 | -56.96808 | 22705 ft | 394 kts | 95° |
| 2026-05-08 13:49 | -34.76411 | -56.93484 | 22705 ft | 396 kts | 95° |
| 2026-05-08 13:49 | -34.76676 | -56.90158 | 22704 ft | 395 kts | 95° |
| 2026-05-08 13:50 | -34.76940 | -56.86840 | 22702 ft | 396 kts | 95° |
| 2026-05-08 13:50 | -34.77204 | -56.83504 | 22680 ft | 396 kts | 95° |
| 2026-05-08 13:50 | -34.77464 | -56.80191 | 22690 ft | 393 kts | 95° |
| 2026-05-08 13:50 | -34.77722 | -56.76899 | 22688 ft | 391 kts | 95° |
| 2026-05-08 13:51 | -34.77958 | -56.73610 | 22686 ft | 391 kts | 91° |
| 2026-05-08 13:51 | -34.77846 | -56.70322 | 22683 ft | 389 kts | 80° |
| 2026-05-08 13:51 | -34.77321 | -56.67119 | 22677 ft | 387 kts | 74° |
| 2026-05-08 13:51 | -34.76720 | -56.63935 | 22673 ft | 387 kts | 74° |
| 2026-05-08 13:52 | -34.76126 | -56.60748 | 22669 ft | 387 kts | 75° |
| 2026-05-08 13:52 | -34.75534 | -56.57559 | 22666 ft | 387 kts | 75° |
| 2026-05-08 13:52 | -34.74942 | -56.54369 | 22651 ft | 387 kts | 74° |
| 2026-05-08 13:52 | -34.74350 | -56.51175 | 22655 ft | 393 kts | 74° |
| 2026-05-08 13:53 | -34.73731 | -56.47865 | 22585 ft | 411 kts | 74° |
| 2026-05-08 13:53 | -34.73085 | -56.44439 | 21720 ft | 423 kts | 74° |
| 2026-05-08 13:53 | -34.72416 | -56.40909 | 20626 ft | 435 kts | 75° |
| 2026-05-08 13:53 | -34.71734 | -56.37288 | 19433 ft | 447 kts | 75° |
| 2026-05-08 13:54 | -34.71045 | -56.33602 | 18604 ft | 447 kts | 75° |
| 2026-05-08 13:54 | -34.70375 | -56.30003 | 18423 ft | 424 kts | 75° |
| 2026-05-08 13:54 | -34.69748 | -56.26621 | 18301 ft | 398 kts | 75° |
| 2026-05-08 13:54 | -34.69090 | -56.23436 | 17455 ft | 390 kts | 71° |
| 2026-05-08 13:55 | -34.68286 | -56.20253 | 16022 ft | 400 kts | 70° |
| 2026-05-08 13:55 | -34.67422 | -56.17052 | 14970 ft | 398 kts | 70° |
| 2026-05-08 13:55 | -34.65697 | -56.10786 | 13098 ft | 385 kts | 71° |
| 2026-05-08 13:56 | -34.64842 | -56.07725 | 12014 ft | 382 kts | 72° |
| 2026-05-08 13:56 | -34.64048 | -56.04675 | 11005 ft | 377 kts | 73° |
| 2026-05-08 13:56 | -34.63263 | -56.01656 | 10014 ft | 375 kts | 73° |
| 2026-05-08 13:56 | -34.62510 | -55.98704 | 9699 ft | 354 kts | 74° |
| 2026-05-08 13:57 | -34.61849 | -55.95937 | 9568 ft | 331 kts | 75° |
| 2026-05-08 13:57 | -34.61226 | -55.93326 | 9263 ft | 318 kts | 75° |
| 2026-05-08 13:57 | -34.60741 | -55.90751 | 8738 ft | 310 kts | 90° |
| 2026-05-08 13:57 | -34.61051 | -55.88230 | 8221 ft | 299 kts | 116° |
| 2026-05-08 13:58 | -34.62135 | -55.86201 | 7972 ft | 276 kts | 138° |
| 2026-05-08 13:58 | -34.63480 | -55.84752 | 7835 ft | 244 kts | 153° |
| 2026-05-08 13:58 | -34.64887 | -55.83791 | 7490 ft | 224 kts | 165° |
| 2026-05-08 13:58 | -34.66333 | -55.83226 | 6956 ft | 215 kts | 176° |
| 2026-05-08 13:59 | -34.67786 | -55.83027 | 6402 ft | 208 kts | 187° |
| 2026-05-08 13:59 | -34.69202 | -55.83170 | 5852 ft | 201 kts | 197° |
| 2026-05-08 13:59 | -34.70525 | -55.83617 | 5298 ft | 195 kts | 207° |
| 2026-05-08 13:59 | -34.71722 | -55.84328 | 4740 ft | 191 kts | 217° |
| 2026-05-08 14:00 | -34.72783 | -55.85284 | 4148 ft | 189 kts | 227° |
| 2026-05-08 14:00 | -34.73668 | -55.86423 | 3633 ft | 182 kts | 236° |
| 2026-05-08 14:00 | -34.74370 | -55.87664 | 3152 ft | 176 kts | 241° |
| 2026-05-08 14:00 | -34.75002 | -55.88892 | 2748 ft | 167 kts | 240° |
| 2026-05-08 14:01 | -34.75675 | -55.89979 | 2443 ft | 154 kts | 235° |
| 2026-05-08 14:01 | -34.76389 | -55.90832 | 2339 ft | 136 kts | 230° |
| 2026-05-08 14:01 | -34.76968 | -55.91602 | 2082 ft | 113 kts | 243° |
| 2026-05-08 14:01 | -34.77391 | -55.92340 | 1848 ft | 102 kts | 233° |
| 2026-05-08 14:02 | -34.77829 | -55.92980 | 1709 ft | 98 kts | 245° |
| 2026-05-08 14:02 | -34.78191 | -55.93621 | 2021 ft | 92 kts | 244° |
| 2026-05-08 14:02 | -34.78714 | -55.94330 | 1701 ft | 131 kts | 234° |
| 2026-05-08 14:02 | -34.79286 | -55.95175 | 1792 ft | 113 kts | 241° |
| 2026-05-08 14:03 | -34.79758 | -55.95874 | 1640 ft | 119 kts | 238° |
| 2026-05-08 14:03 | -34.80239 | -55.96731 | 1278 ft | 115 kts | 243° |
| 2026-05-08 14:03 | -34.80615 | -55.97567 | 828 ft | 119 kts | 247° |
| 2026-05-08 14:03 | -34.80923 | -55.98538 | 526 ft | 120 kts | 252° |
| 2026-05-08 14:04 | -34.81473 | -55.99315 | 422 ft | 134 kts | 223° |
| 2026-05-08 14:04 | -34.82103 | -56.00036 | 558 ft | 110 kts | 235° |
| 2026-05-08 14:04 | -34.82513 | -56.00832 | 246 ft | 118 kts | 245° |
| 2026-05-08 14:04 | -34.82985 | -56.01673 | 111 ft | 115 kts | 235° |
| 2026-05-08 14:05 | -34.83430 | -56.02417 | 88 ft | 108 kts | 234° |
| 2026-05-08 14:05 | -34.83828 | -56.03057 | 66 ft | 73 kts | 234° |
| 2026-05-08 14:05 | -34.84070 | -56.03449 | 68 ft | 52 kts | 233° |
| 2026-05-08 14:05 | -34.84286 | -56.03788 | 61 ft | 50 kts | 233° |
| 2026-05-08 14:06 | -34.84495 | -56.03948 | 55 ft | 23 kts | 159° |
| 2026-05-08 14:06 | -34.84519 | -56.03928 | 59 ft | 0 kts | 121° |